Mostar, Bosnia and Herzegovina
Current Conditions -  °F | °C
As of 11:30 AM on Monday 24 Nov 2014 (Local Time) from LQMO Reporting Station
Clear Clear  
Wind Chill: 52°   Ceiling: Unl
Heat Index: 52°   Visibility: 6mi
Dew Point: 39°   Wind: 2mph
Humidity: 62%   Direction: NA
Pressure: 30.21"   Gusts: NA
Location:  43.34°N, 17.81°E
Report Text: LQMO 240930Z VRB02KT 9999 4500SE NSC 11/04 Q1023
Loading
Personal Weather Stations






























Interactive Weather Map New forecast layout! Learn more

10-Day Weather Forecast

Advertisements
Track Severe Weather on mobile